createdAt,value
2018-04-16T00:00:38.954Z,91.40
2018-04-16T00:03:06.390Z,91.40
2018-04-16T00:05:33.859Z,91.50
2018-04-16T00:08:01.310Z,91.70
2018-04-16T00:10:28.818Z,92.00
2018-04-16T00:12:56.299Z,92.20
2018-04-16T00:15:23.810Z,92.20
2018-04-16T00:17:52.096Z,91.50
2018-04-16T00:20:20.409Z,91.90
2018-04-16T00:22:47.926Z,91.80
2018-04-16T00:25:15.411Z,92.00
2018-04-16T00:27:42.896Z,92.30
2018-04-16T00:30:10.347Z,92.50
2018-04-16T00:32:43.385Z,92.40
2018-04-16T00:35:16.491Z,92.50
2018-04-16T00:37:50.370Z,92.30
2018-04-16T00:40:23.478Z,92.30
2018-04-16T00:42:57.363Z,92.30
2018-04-16T00:45:30.390Z,92.30
2018-04-16T00:48:04.178Z,92.60
2018-04-16T00:50:37.926Z,92.60
2018-04-16T00:53:11.065Z,92.60
2018-04-16T00:55:44.149Z,92.50
2018-04-16T00:58:17.174Z,92.80
2018-04-16T01:00:50.168Z,92.90
2018-04-16T01:03:23.287Z,93.00
2018-04-16T01:05:56.283Z,93.10
2018-04-16T01:08:29.402Z,93.10
2018-04-16T01:11:03.147Z,93.80
2018-04-16T01:13:36.335Z,93.70
2018-04-16T01:16:09.299Z,94.10
2018-04-16T01:18:42.395Z,94.00
2018-04-16T01:21:15.422Z,94.50
2018-04-16T01:23:48.433Z,94.10
2018-04-16T01:26:21.546Z,94.40
2018-04-16T01:28:55.421Z,94.20
2018-04-16T01:31:28.402Z,94.10
2018-04-16T01:34:01.593Z,94.60
2018-04-16T01:36:34.574Z,94.60
2018-04-16T01:39:07.566Z,94.30
2018-04-16T01:41:40.549Z,94.40
2018-04-16T01:44:13.675Z,94.30
2018-04-16T01:46:47.607Z,94.20
2018-04-16T01:49:20.780Z,94.30
2018-04-16T01:55:02.367Z,94.20
2018-04-16T01:57:35.516Z,94.20
2018-04-16T02:00:08.733Z,94.30
2018-04-16T02:02:41.891Z,94.40
2018-04-16T02:05:15.092Z,94.60
2018-04-16T02:07:48.271Z,94.80
2018-04-16T02:10:21.464Z,94.90
2018-04-16T02:12:55.356Z,95.10
2018-04-16T02:15:28.551Z,95.10
2018-04-16T02:18:01.753Z,94.70
2018-04-16T02:20:34.818Z,94.40
2018-04-16T02:26:10.020Z,95.00
2018-04-16T02:28:43.000Z,96.20
2018-04-16T02:34:28.312Z,96.00
2018-04-16T02:37:01.498Z,96.60
2018-04-16T02:39:34.554Z,96.80
2018-04-16T02:42:08.686Z,97.40
2018-04-16T02:44:41.943Z,97.40
2018-04-16T02:47:14.957Z,97.50
2018-04-16T02:49:48.170Z,97.00
2018-04-16T02:52:21.339Z,97.10
2018-04-16T02:54:54.535Z,97.00
2018-04-16T02:57:27.695Z,97.00
2018-04-16T03:00:14.311Z,97.00
2018-04-16T03:02:47.403Z,97.40
2018-04-16T03:05:20.606Z,97.60
2018-04-16T03:07:53.638Z,98.00
2018-04-16T03:10:26.821Z,97.90
2018-04-16T03:12:59.889Z,98.10
2018-04-16T03:15:33.075Z,98.00
2018-04-16T03:18:06.248Z,99.30
2018-04-16T03:20:39.418Z,98.90
2018-04-16T03:23:12.646Z,99.60
2018-04-16T03:25:45.686Z,99.90
2018-04-16T03:28:19.582Z,99.90
2018-04-16T03:30:53.434Z,99.90
2018-04-16T03:33:26.566Z,99.90
2018-04-16T03:35:59.738Z,99.90
2018-04-16T03:38:32.830Z,99.90
2018-04-16T03:41:06.094Z,99.90
2018-04-16T03:43:39.257Z,99.90
2018-04-16T03:46:12.331Z,99.90
2018-04-16T03:48:45.392Z,99.90
2018-04-16T03:51:18.645Z,99.90
2018-04-16T03:53:46.659Z,99.90
2018-04-16T03:56:14.915Z,99.90
2018-04-16T03:58:42.438Z,99.90
2018-04-16T04:01:09.954Z,99.90
2018-04-16T04:03:37.475Z,99.90
2018-04-16T04:06:04.944Z,99.90
2018-04-16T04:08:32.466Z,99.90
2018-04-16T04:10:59.902Z,99.90
2018-04-16T04:13:27.409Z,99.90
2018-04-16T04:15:54.878Z,99.90
2018-04-16T04:18:22.436Z,99.90
2018-04-16T04:20:49.926Z,99.90
2018-04-16T04:23:30.030Z,99.90
2018-04-16T04:29:13.945Z,99.90
2018-04-16T04:31:42.142Z,99.90
2018-04-16T04:34:09.574Z,99.90
2018-04-16T04:36:37.770Z,99.90
2018-04-16T04:39:05.210Z,99.90
2018-04-16T04:41:33.398Z,99.90
2018-04-16T04:44:01.607Z,99.90
2018-04-16T04:46:29.038Z,99.90
2018-04-16T04:48:56.468Z,99.90
2018-04-16T04:51:23.930Z,99.90
2018-04-16T04:53:52.134Z,99.90
2018-04-16T04:56:19.551Z,99.90
2018-04-16T04:58:47.862Z,99.90
2018-04-16T05:01:15.265Z,99.90
2018-04-16T05:03:42.706Z,99.90
2018-04-16T05:06:10.134Z,99.90
2018-04-16T05:08:37.958Z,99.90
2018-04-16T05:11:06.156Z,99.90
2018-04-16T05:13:33.581Z,99.90
2018-04-16T05:16:01.781Z,99.90
2018-04-16T05:18:29.217Z,99.90
2018-04-16T05:20:56.639Z,99.90
2018-04-16T05:23:24.070Z,99.90
2018-04-16T05:25:51.495Z,99.90
2018-04-16T05:28:19.702Z,99.90
2018-04-16T05:30:47.134Z,99.90
2018-04-16T05:33:14.570Z,99.90
2018-04-16T05:35:42.765Z,99.90
2018-04-16T05:38:10.204Z,99.90
2018-04-16T05:40:38.413Z,99.90
2018-04-16T05:43:05.838Z,99.90
2018-04-16T05:45:34.051Z,99.90
2018-04-16T05:48:01.487Z,99.90
2018-04-16T05:50:28.914Z,99.90
2018-04-16T05:52:57.159Z,99.90
2018-04-16T05:55:24.593Z,99.90
2018-04-16T05:57:52.035Z,99.90
2018-04-16T06:00:19.833Z,99.90
2018-04-16T06:02:47.259Z,99.90
2018-04-16T06:05:14.700Z,99.90
2018-04-16T06:07:42.131Z,99.90
2018-04-16T06:10:10.345Z,99.90
2018-04-16T06:12:41.022Z,99.90
2018-04-16T06:15:08.471Z,99.90
2018-04-16T06:17:35.900Z,99.90
2018-04-16T06:20:03.345Z,99.90
2018-04-16T06:22:30.766Z,99.90
2018-04-16T06:24:58.985Z,99.90
2018-04-16T06:27:26.444Z,99.90
2018-04-16T06:29:53.849Z,99.90
2018-04-16T06:32:22.062Z,99.90
2018-04-16T06:34:49.801Z,99.90
2018-04-16T06:37:17.238Z,99.90
2018-04-16T06:39:46.609Z,99.90
2018-04-16T06:42:15.130Z,99.90
2018-04-16T06:44:43.340Z,99.90
2018-04-16T06:47:10.767Z,99.90
2018-04-16T06:49:38.246Z,99.90
2018-04-16T06:52:05.679Z,99.90
2018-04-16T06:54:33.882Z,99.90
2018-04-16T06:57:01.346Z,99.90
2018-04-16T06:59:28.770Z,99.90
2018-04-16T07:01:56.228Z,99.90
2018-04-16T07:04:23.676Z,99.90
2018-04-16T07:06:51.114Z,99.90
2018-04-16T07:09:19.434Z,99.90
2018-04-16T07:11:46.854Z,99.90
2018-04-16T07:14:15.057Z,99.90
2018-04-16T07:16:42.503Z,99.90
2018-04-16T07:19:09.975Z,99.90
2018-04-16T07:21:47.803Z,99.90
2018-04-16T07:24:15.240Z,99.90
2018-04-16T07:26:42.668Z,99.90
2018-04-16T07:29:10.095Z,99.90
2018-04-16T07:31:38.293Z,99.90
2018-04-16T07:34:05.804Z,99.90
2018-04-16T07:36:33.328Z,99.90
2018-04-16T07:39:00.815Z,99.90
2018-04-16T07:41:28.245Z,99.90
2018-04-16T07:43:55.673Z,99.90
2018-04-16T07:46:23.105Z,99.90
2018-04-16T07:48:51.311Z,99.90
2018-04-16T07:51:18.741Z,99.90
2018-04-16T07:53:46.938Z,99.00
2018-04-16T07:56:14.374Z,99.00
2018-04-16T07:58:42.586Z,98.00
2018-04-16T08:01:10.051Z,98.00
2018-04-16T08:03:37.494Z,97.20
2018-04-16T08:06:04.927Z,97.80
2018-04-16T08:08:33.130Z,95.80
2018-04-16T08:11:00.561Z,95.80
2018-04-16T08:13:28.000Z,94.20
2018-04-16T08:15:56.211Z,94.10
2018-04-16T08:18:23.647Z,94.00
2018-04-16T08:20:51.109Z,92.70
2018-04-16T08:23:19.407Z,92.70
2018-04-16T08:25:46.882Z,92.20
2018-04-16T08:28:14.320Z,88.50
2018-04-16T08:30:41.780Z,86.30
2018-04-16T08:33:09.209Z,88.70
2018-04-16T08:35:36.635Z,91.10
2018-04-16T08:38:04.071Z,90.60
2018-04-16T08:40:31.510Z,89.40
2018-04-16T08:42:58.945Z,91.30
2018-04-16T08:45:26.373Z,91.00
2018-04-16T08:47:53.804Z,88.30
2018-04-16T08:50:21.229Z,89.50
2018-04-16T08:52:48.670Z,87.50
2018-04-16T08:55:16.102Z,87.50
2018-04-16T08:57:43.543Z,90.50
2018-04-16T09:00:10.970Z,88.60
2018-04-16T09:02:38.422Z,82.20
2018-04-16T09:05:05.858Z,86.60
2018-04-16T09:07:33.292Z,80.50
2018-04-16T09:10:00.716Z,84.60
2018-04-16T09:12:28.920Z,82.10
2018-04-16T09:14:56.358Z,82.20
2018-04-16T09:17:24.575Z,79.90
2018-04-16T09:19:52.017Z,80.10
2018-04-16T09:22:19.446Z,81.40
2018-04-16T09:24:46.877Z,84.10
2018-04-16T09:27:14.293Z,80.90
2018-04-16T09:29:41.726Z,81.10
2018-04-16T09:32:09.159Z,74.30
2018-04-16T09:34:37.356Z,74.30
2018-04-16T09:37:04.781Z,74.20
2018-04-16T09:39:32.231Z,71.70
2018-04-16T09:41:59.662Z,72.60
2018-04-16T09:44:27.097Z,70.00
2018-04-16T09:46:54.585Z,68.80
2018-04-16T09:49:22.081Z,68.30
2018-04-16T09:51:49.474Z,66.00
2018-04-16T09:54:16.922Z,64.00
2018-04-16T09:56:44.354Z,67.00
2018-04-16T09:59:11.834Z,69.90
2018-04-16T10:01:39.316Z,71.70
2018-04-16T10:04:06.755Z,72.60
2018-04-16T10:06:34.202Z,69.60
2018-04-16T10:09:01.654Z,67.80
2018-04-16T10:11:29.077Z,67.30
2018-04-16T10:13:57.315Z,71.50
2018-04-16T10:16:24.753Z,71.50
2018-04-16T10:18:52.205Z,67.30
2018-04-16T10:21:19.659Z,72.30
2018-04-16T10:23:47.074Z,64.80
2018-04-16T10:26:15.279Z,64.70
2018-04-16T10:28:42.701Z,64.80
2018-04-16T10:31:10.906Z,66.60
2018-04-16T10:33:38.327Z,66.60
2018-04-16T10:36:05.758Z,65.90
2018-04-16T10:38:33.201Z,59.00
2018-04-16T10:41:00.646Z,60.90
2018-04-16T10:43:28.046Z,60.50
2018-04-16T10:45:55.477Z,63.80
2018-04-16T10:48:22.926Z,63.40
2018-04-16T10:50:50.350Z,63.10
2018-04-16T10:53:17.774Z,63.80
2018-04-16T10:55:45.977Z,60.80
2018-04-16T10:58:13.401Z,60.80
2018-04-16T11:00:41.598Z,61.70
2018-04-16T11:03:09.028Z,61.50
2018-04-16T11:05:36.458Z,64.90
2018-04-16T11:08:03.887Z,62.80
2018-04-16T11:10:31.313Z,62.20
2018-04-16T11:12:58.748Z,61.20
2018-04-16T11:15:26.203Z,63.50
2018-04-16T11:17:53.638Z,58.20
2018-04-16T11:20:21.087Z,59.30
2018-04-16T11:22:48.535Z,61.40
2018-04-16T11:25:15.973Z,59.80
2018-04-16T11:27:43.405Z,60.90
2018-04-16T11:30:11.594Z,58.40
2018-04-16T11:32:39.026Z,58.40
2018-04-16T11:35:07.222Z,59.50
2018-04-16T11:37:34.655Z,59.50
2018-04-16T11:40:02.846Z,61.10
2018-04-16T11:42:30.270Z,61.00
2018-04-16T11:44:57.695Z,58.20
2018-04-16T11:47:25.134Z,58.90
2018-04-16T11:49:52.549Z,58.70
2018-04-16T11:52:20.744Z,60.60
2018-04-16T11:54:48.182Z,60.70
2018-04-16T11:57:16.391Z,54.40
2018-04-16T11:59:43.817Z,54.30
2018-04-16T12:02:12.047Z,53.60
2018-04-16T12:04:39.432Z,53.70
2018-04-16T12:07:06.866Z,50.30
2018-04-16T12:09:34.299Z,51.60
2018-04-16T12:12:01.724Z,52.90
2018-04-16T12:14:29.145Z,52.60
2018-04-16T12:16:56.574Z,49.60
2018-04-16T12:19:23.993Z,48.90
2018-04-16T12:21:51.460Z,47.60
2018-04-16T12:24:19.617Z,52.70
2018-04-16T12:26:47.070Z,52.70
2018-04-16T12:29:15.253Z,49.40
2018-04-16T12:31:42.678Z,49.50
2018-04-16T12:34:10.883Z,49.60
2018-04-16T12:36:38.316Z,49.30
2018-04-16T12:39:06.524Z,51.40
2018-04-16T12:41:33.948Z,51.40
2018-04-16T12:44:02.141Z,54.50
2018-04-16T12:46:29.567Z,54.30
2018-04-16T12:48:57.781Z,50.00
2018-04-16T12:51:25.203Z,50.00
2018-04-16T12:53:53.415Z,50.10
2018-04-16T12:56:20.836Z,50.10
2018-04-16T12:58:49.031Z,50.80
2018-04-16T13:01:16.465Z,50.80
2018-04-16T13:03:44.661Z,53.00
2018-04-16T13:06:12.090Z,53.00
2018-04-16T13:08:40.291Z,52.10
2018-04-16T13:11:07.715Z,52.10
2018-04-16T13:13:35.909Z,54.40
2018-04-16T13:16:03.338Z,54.30
2018-04-16T13:18:30.780Z,55.40
2018-04-16T13:20:58.205Z,53.90
2018-04-16T13:23:25.638Z,54.20
2018-04-16T13:25:53.058Z,56.40
2018-04-16T13:28:20.500Z,54.50
2018-04-16T13:30:47.921Z,55.50
2018-04-16T13:33:15.351Z,56.90
2018-04-16T13:35:42.778Z,57.90
2018-04-16T13:38:10.226Z,55.40
2018-04-16T13:40:37.666Z,56.40
2018-04-16T13:43:05.101Z,56.60
2018-04-16T13:45:32.525Z,55.90
2018-04-16T13:47:59.950Z,57.40
2018-04-16T13:50:27.394Z,55.80
2018-04-16T13:52:54.821Z,56.10
2018-04-16T13:55:22.276Z,56.90
2018-04-16T13:57:49.705Z,58.10
2018-04-16T14:00:17.140Z,56.30
2018-04-16T14:02:44.569Z,57.40
2018-04-16T14:05:12.003Z,56.40
2018-04-16T14:07:39.425Z,56.90
2018-04-16T14:10:07.627Z,58.20
2018-04-16T14:12:35.054Z,58.20
2018-04-16T14:15:03.246Z,56.40
2018-04-16T14:17:30.734Z,56.20
2018-04-16T14:19:58.181Z,57.80
2018-04-16T14:22:25.613Z,55.80
2018-04-16T14:24:53.042Z,54.10
2018-04-16T14:27:21.242Z,53.50
2018-04-16T14:29:48.678Z,53.50
2018-04-16T14:32:16.873Z,50.90
2018-04-16T14:34:44.301Z,47.70
2018-04-16T14:37:12.502Z,50.80
2018-04-16T14:39:39.939Z,50.70
2018-04-16T14:42:08.138Z,48.90
2018-04-16T14:44:35.573Z,48.90
2018-04-16T14:47:03.763Z,51.00
2018-04-16T14:49:31.198Z,50.90
2018-04-16T14:51:58.631Z,47.90
2018-04-16T14:54:26.068Z,48.50
2018-04-16T14:56:53.497Z,50.30
2018-04-16T14:59:21.694Z,49.60
2018-04-16T15:01:49.129Z,49.70
2018-04-16T15:04:16.553Z,47.90
2018-04-16T15:06:43.985Z,48.10
2018-04-16T15:09:11.432Z,48.40
2018-04-16T15:11:38.879Z,47.20
2018-04-16T15:14:06.337Z,48.60
2018-04-16T15:16:33.777Z,49.30
2018-04-16T15:19:01.227Z,48.80
2018-04-16T15:21:28.857Z,49.10
2018-04-16T15:23:56.291Z,49.40
2018-04-16T15:26:23.737Z,50.10
2018-04-16T15:28:51.189Z,49.40
2018-04-16T15:31:18.625Z,49.60
2018-04-16T15:33:46.050Z,48.40
2018-04-16T15:36:13.478Z,49.10
2018-04-16T15:38:41.699Z,50.60
2018-04-16T15:41:09.148Z,51.10
2018-04-16T15:43:36.579Z,49.60
2018-04-16T15:46:04.779Z,50.80
2018-04-16T15:48:32.202Z,50.70
2018-04-16T15:51:00.590Z,50.30
2018-04-16T15:53:28.013Z,50.30
2018-04-16T15:55:55.514Z,50.90
2018-04-16T15:58:22.878Z,51.30
2018-04-16T16:00:50.299Z,51.20
2018-04-16T16:03:18.505Z,50.40
2018-04-16T16:05:45.945Z,50.30
2018-04-16T16:08:13.389Z,51.50
2018-04-16T16:10:41.661Z,51.70
2018-04-16T16:13:09.871Z,51.30
2018-04-16T16:15:37.298Z,52.60
2018-04-16T16:18:04.734Z,53.20
2018-04-16T16:20:32.290Z,53.60
2018-04-16T16:22:59.717Z,54.90
2018-04-16T16:25:27.147Z,54.90
2018-04-16T16:27:54.570Z,54.00
2018-04-16T16:30:22.766Z,54.50
2018-04-16T16:32:50.197Z,54.50
2018-04-16T16:35:18.629Z,55.20
2018-04-16T16:37:46.075Z,55.20
2018-04-16T16:40:13.502Z,55.50
2018-04-16T16:42:40.929Z,55.50
2018-04-16T16:45:09.134Z,56.50
2018-04-16T16:47:36.566Z,56.50
2018-04-16T16:50:04.758Z,58.00
2018-04-16T16:52:32.198Z,57.10
2018-04-16T16:55:00.390Z,57.80
2018-04-16T16:57:27.817Z,57.70
2018-04-16T16:59:55.250Z,57.80
2018-04-16T17:02:22.754Z,55.80
2018-04-16T17:04:50.321Z,56.30
2018-04-16T17:07:17.754Z,56.80
2018-04-16T17:09:45.954Z,56.00
2018-04-16T17:12:13.378Z,55.90
2018-04-16T17:14:41.583Z,56.70
2018-04-16T17:17:09.009Z,56.70
2018-04-16T17:19:36.509Z,56.30
2018-04-16T17:22:03.926Z,56.30
2018-04-16T17:24:32.140Z,55.70
2018-04-16T17:26:59.561Z,55.60
2018-04-16T17:29:27.770Z,56.80
2018-04-16T17:31:55.768Z,56.30
2018-04-16T17:34:23.205Z,56.90
2018-04-16T17:36:50.682Z,56.90
2018-04-16T17:39:18.061Z,57.40
2018-04-16T17:41:45.485Z,57.50
2018-04-16T17:44:12.918Z,57.70
2018-04-16T17:46:40.334Z,57.80
2018-04-16T17:49:08.574Z,58.40
2018-04-16T17:51:36.004Z,58.30
2018-04-16T17:54:03.438Z,58.90
2018-04-16T17:56:30.866Z,58.80
2018-04-16T17:58:58.306Z,59.70
2018-04-16T18:01:25.728Z,63.30
2018-04-16T18:03:53.228Z,65.50
2018-04-16T18:06:20.658Z,67.80
2018-04-16T18:08:48.098Z,69.90
2018-04-16T18:11:15.509Z,70.60
2018-04-16T18:13:42.947Z,72.60
2018-04-16T18:16:10.373Z,76.00
2018-04-16T18:18:37.818Z,77.50
2018-04-16T18:21:05.245Z,77.90
2018-04-16T18:23:32.660Z,78.50
2018-04-16T18:26:00.090Z,78.90
2018-04-16T18:28:27.509Z,80.60
2018-04-16T18:30:54.998Z,82.10
2018-04-16T18:33:22.424Z,83.80
2018-04-16T18:35:49.849Z,84.40
2018-04-16T18:38:17.282Z,84.70
2018-04-16T18:40:44.711Z,84.60
2018-04-16T18:43:12.893Z,85.70
2018-04-16T18:45:40.364Z,85.60
2018-04-16T18:48:07.779Z,87.10
2018-04-16T18:50:35.217Z,87.30
2018-04-16T18:53:02.650Z,88.00
2018-04-16T18:55:30.074Z,88.40
2018-04-16T18:57:57.502Z,88.30
2018-04-16T19:00:25.720Z,89.30
2018-04-16T19:02:53.146Z,88.40
2018-04-16T19:05:20.584Z,89.10
2018-04-16T19:07:48.010Z,89.80
2018-04-16T19:10:15.443Z,89.70
2018-04-16T19:12:42.874Z,90.10
2018-04-16T19:15:10.305Z,90.30
2018-04-16T19:17:43.287Z,90.50
2018-04-16T19:20:10.709Z,90.80
2018-04-16T19:22:38.136Z,91.20
2018-04-16T19:25:05.623Z,91.30
2018-04-16T19:27:38.662Z,91.40
2018-04-16T19:30:06.897Z,91.70
2018-04-16T19:32:39.901Z,91.70
2018-04-16T19:35:07.338Z,91.80
2018-04-16T19:37:34.777Z,91.90
2018-04-16T19:40:02.207Z,92.40
2018-04-16T19:42:35.225Z,92.60
2018-04-16T19:45:02.660Z,92.30
2018-04-16T19:47:30.085Z,92.40
2018-04-16T19:50:03.905Z,92.90
2018-04-16T19:52:31.342Z,92.90
2018-04-16T19:54:59.763Z,93.50
2018-04-16T19:57:32.853Z,93.30
2018-04-16T20:00:00.401Z,94.00
2018-04-16T20:02:33.528Z,94.00
2018-04-16T20:05:00.985Z,94.30
2018-04-16T20:07:28.423Z,94.40
2018-04-16T20:09:55.861Z,94.10
2018-04-16T20:12:23.297Z,94.20
2018-04-16T20:14:50.721Z,94.50
2018-04-16T20:17:18.146Z,94.40
2018-04-16T20:19:45.569Z,94.10
2018-04-16T20:22:13.024Z,94.00
2018-04-16T20:24:40.451Z,94.20
2018-04-16T20:27:08.954Z,93.90
2018-04-16T20:29:37.150Z,93.80
2018-04-16T20:32:04.713Z,93.80
2018-04-16T20:34:32.121Z,92.40
2018-04-16T20:37:01.155Z,92.10
2018-04-16T20:39:28.565Z,92.00
2018-04-16T20:41:55.997Z,92.50
2018-04-16T20:44:23.424Z,92.90
2018-04-16T20:46:50.865Z,93.30
2018-04-16T20:49:18.281Z,93.40
2018-04-16T20:51:45.847Z,93.50
2018-04-16T20:54:13.299Z,93.70
2018-04-16T20:56:40.726Z,93.80
2018-04-16T20:59:08.163Z,93.90
2018-04-16T21:01:35.582Z,94.00
2018-04-16T21:04:03.778Z,94.10
2018-04-16T21:06:31.202Z,94.10
2018-04-16T21:08:59.401Z,94.90
2018-04-16T21:11:26.834Z,94.90
2018-04-16T21:13:55.034Z,94.50
2018-04-16T21:16:22.458Z,94.50
2018-04-16T21:18:50.650Z,94.20
2018-04-16T21:21:18.083Z,94.40
2018-04-16T21:23:45.556Z,94.30
2018-04-16T21:26:13.772Z,94.20
2018-04-16T21:28:41.259Z,94.20
2018-04-16T21:31:08.726Z,94.00
2018-04-16T21:33:36.154Z,93.80
2018-04-16T21:36:03.573Z,93.80
2018-04-16T21:38:31.004Z,93.90
2018-04-16T21:40:58.446Z,94.10
2018-04-16T21:43:25.870Z,94.30
2018-04-16T21:45:53.298Z,94.10
2018-04-16T21:48:20.717Z,94.10
2018-04-16T21:50:48.146Z,94.10
2018-04-16T21:53:15.586Z,94.10
2018-04-16T21:55:43.015Z,94.10
2018-04-16T21:58:10.444Z,94.40
2018-04-16T22:00:37.866Z,94.40
2018-04-16T22:03:05.292Z,94.30
2018-04-16T22:05:33.130Z,94.10
2018-04-16T22:08:01.323Z,94.70
2018-04-16T22:10:28.812Z,94.70
2018-04-16T22:12:56.180Z,95.00
2018-04-16T22:15:23.612Z,95.30
2018-04-16T22:17:51.038Z,95.70
2018-04-16T22:20:19.623Z,96.30
2018-04-16T22:22:47.065Z,96.30
2018-04-16T22:25:15.282Z,96.60
2018-04-16T22:27:43.470Z,96.80
2018-04-16T22:30:10.911Z,96.80
2018-04-16T22:32:38.326Z,97.10
2018-04-16T22:35:05.753Z,97.20
2018-04-16T22:37:33.176Z,97.50
2018-04-16T22:40:00.606Z,97.30
2018-04-16T22:42:28.027Z,97.40
2018-04-16T22:44:55.462Z,97.60
2018-04-16T22:47:22.886Z,97.60
2018-04-16T22:49:50.317Z,97.70
2018-04-16T22:52:18.522Z,98.30
2018-04-16T22:54:45.950Z,98.30
2018-04-16T22:57:14.142Z,98.20
2018-04-16T22:59:41.570Z,98.10
2018-04-16T23:02:09.762Z,98.10
2018-04-16T23:04:37.206Z,98.10
2018-04-16T23:07:04.631Z,98.40
2018-04-16T23:09:32.058Z,98.70
2018-04-16T23:11:59.511Z,98.80
2018-04-16T23:14:26.933Z,99.10
2018-04-16T23:16:55.147Z,99.10
2018-04-16T23:19:22.562Z,99.00
2018-04-16T23:21:50.771Z,99.20
2018-04-16T23:24:18.202Z,99.20
2018-04-16T23:26:46.412Z,99.30
2018-04-16T23:29:13.845Z,99.30
2018-04-16T23:31:41.270Z,99.70
2018-04-16T23:34:09.470Z,99.90
2018-04-16T23:36:36.906Z,99.90
2018-04-16T23:39:05.954Z,99.90
2018-04-16T23:41:33.397Z,99.90
2018-04-16T23:44:00.831Z,99.90
2018-04-16T23:46:28.270Z,99.90
2018-04-16T23:48:55.690Z,99.90
2018-04-16T23:51:23.119Z,99.70
2018-04-16T23:53:50.556Z,99.90
2018-04-16T23:56:17.994Z,99.90
2018-04-16T23:58:47.170Z,99.90
